createdAt,value
2022-12-29T00:00:52.759Z,42.30
2022-12-29T00:04:02.124Z,42.20
2022-12-29T00:07:10.101Z,42.50
2022-12-29T00:10:18.448Z,42.30
2022-12-29T00:13:44.034Z,42.20
2022-12-29T00:16:52.117Z,42.20
2022-12-29T00:20:19.131Z,42.20
2022-12-29T00:23:44.223Z,42.20
2022-12-29T00:27:21.399Z,42.20
2022-12-29T00:30:46.760Z,42.20
2022-12-29T00:34:12.000Z,42.90
2022-12-29T00:37:42.528Z,42.20
2022-12-29T00:41:08.123Z,42.20
2022-12-29T00:44:16.240Z,42.20
2022-12-29T00:47:25.786Z,42.20
2022-12-29T00:50:32.692Z,42.20
2022-12-29T00:53:42.245Z,42.10
2022-12-29T00:56:50.711Z,42.10
2022-12-29T00:59:59.045Z,42.10
2022-12-29T01:03:07.447Z,42.10
2022-12-29T01:06:16.111Z,42.10
2022-12-29T01:09:43.185Z,42.00
2022-12-29T01:12:51.847Z,42.10
2022-12-29T01:15:59.972Z,42.10
2022-12-29T01:19:08.447Z,42.10
2022-12-29T01:22:16.388Z,42.20
2022-12-29T01:25:27.086Z,42.30
2022-12-29T01:28:34.957Z,42.20
2022-12-29T01:31:43.043Z,42.20
2022-12-29T01:34:51.091Z,42.20
2022-12-29T01:37:59.763Z,42.20
2022-12-29T01:41:09.617Z,42.20
2022-12-29T01:44:52.072Z,42.20
2022-12-29T01:48:01.147Z,42.20
2022-12-29T01:51:09.175Z,42.20
2022-12-29T01:54:22.651Z,42.20
2022-12-29T01:57:33.471Z,42.60
2022-12-29T02:00:42.790Z,42.00
2022-12-29T02:03:50.920Z,42.00
2022-12-29T02:07:00.415Z,42.00
2022-12-29T02:10:09.243Z,42.10
2022-12-29T02:13:19.183Z,42.10
2022-12-29T02:16:34.014Z,42.00
2022-12-29T02:20:21.574Z,42.10
2022-12-29T02:24:12.537Z,42.20
2022-12-29T02:27:42.769Z,42.00
2022-12-29T02:31:02.687Z,42.30
2022-12-29T02:34:18.269Z,42.00
2022-12-29T02:37:28.694Z,42.00
2022-12-29T02:40:39.760Z,42.00
2022-12-29T02:43:50.256Z,42.00
2022-12-29T02:47:02.434Z,42.00
2022-12-29T02:50:13.606Z,42.10
2022-12-29T02:53:43.043Z,42.10
2022-12-29T02:56:50.552Z,42.20
2022-12-29T02:59:59.503Z,42.50
2022-12-29T03:03:19.298Z,42.20
2022-12-29T03:06:33.308Z,42.10
2022-12-29T03:09:45.075Z,42.00
2022-12-29T03:13:13.971Z,42.00
2022-12-29T03:16:24.194Z,42.70
2022-12-29T03:19:35.964Z,42.20
2022-12-29T03:22:45.166Z,42.10
2022-12-29T03:25:57.846Z,42.20
2022-12-29T03:29:07.097Z,42.20
2022-12-29T03:32:15.724Z,42.40
2022-12-29T03:35:26.938Z,42.30
2022-12-29T03:38:37.353Z,42.20
2022-12-29T03:41:45.832Z,42.50
2022-12-29T03:44:55.964Z,42.30
2022-12-29T03:48:04.692Z,42.30
2022-12-29T03:51:15.233Z,42.30
2022-12-29T03:54:23.369Z,42.50
2022-12-29T03:57:31.332Z,42.40
2022-12-29T04:00:43.177Z,42.30
2022-12-29T04:03:51.184Z,42.30
2022-12-29T04:07:00.650Z,42.30
2022-12-29T04:10:09.541Z,42.30
2022-12-29T04:13:18.428Z,42.60
2022-12-29T04:16:26.658Z,42.40
2022-12-29T04:19:34.946Z,42.30
2022-12-29T04:22:44.636Z,42.30
2022-12-29T04:25:52.666Z,42.50
2022-12-29T04:29:00.596Z,42.40
2022-12-29T04:32:26.948Z,42.50
2022-12-29T04:35:36.475Z,42.60
2022-12-29T04:38:46.056Z,42.40
2022-12-29T04:41:54.781Z,42.70
2022-12-29T04:45:03.851Z,42.40
2022-12-29T04:48:34.152Z,42.40
2022-12-29T04:52:01.367Z,42.50
2022-12-29T04:55:11.601Z,42.30
2022-12-29T04:58:22.848Z,42.50
2022-12-29T05:01:31.354Z,42.70
2022-12-29T05:04:39.821Z,42.80
2022-12-29T05:07:48.349Z,42.70
2022-12-29T05:10:57.758Z,42.50
2022-12-29T05:14:06.101Z,42.70
2022-12-29T05:17:14.705Z,42.50
2022-12-29T05:20:22.779Z,42.70
2022-12-29T05:23:31.018Z,42.50
2022-12-29T05:26:47.195Z,42.50
2022-12-29T05:30:14.665Z,42.90
2022-12-29T05:33:22.840Z,42.60
2022-12-29T05:36:37.464Z,42.70
2022-12-29T05:39:47.047Z,42.70
2022-12-29T05:42:56.888Z,42.70
2022-12-29T05:46:20.934Z,42.80
2022-12-29T05:49:40.215Z,42.90
2022-12-29T05:53:01.359Z,42.90
2022-12-29T05:56:10.544Z,42.90
2022-12-29T05:59:21.045Z,43.40
2022-12-29T06:02:30.156Z,42.90
2022-12-29T06:05:39.220Z,43.20
2022-12-29T06:08:47.218Z,43.50
2022-12-29T06:11:55.997Z,43.20
2022-12-29T06:15:07.661Z,43.10
2022-12-29T06:18:19.868Z,43.10
2022-12-29T06:21:29.007Z,44.20
2022-12-29T06:24:37.052Z,43.40
2022-12-29T06:27:45.028Z,43.00
2022-12-29T06:30:54.269Z,42.90
2022-12-29T06:34:08.262Z,43.30
2022-12-29T06:37:17.831Z,43.20
2022-12-29T06:40:26.064Z,43.20
2022-12-29T06:44:08.816Z,43.30
2022-12-29T06:47:32.458Z,43.20
2022-12-29T06:50:40.260Z,43.10
2022-12-29T06:53:48.386Z,43.10
2022-12-29T06:56:56.323Z,43.00
2022-12-29T07:00:05.769Z,43.20
2022-12-29T07:03:15.514Z,43.50
2022-12-29T07:06:23.443Z,43.20
2022-12-29T07:09:31.639Z,43.30
2022-12-29T07:12:39.595Z,43.20
2022-12-29T07:15:47.926Z,43.30
2022-12-29T07:18:57.933Z,43.50
2022-12-29T07:22:06.001Z,43.10
2022-12-29T07:25:13.974Z,42.90
2022-12-29T07:28:22.489Z,43.20
2022-12-29T07:31:30.801Z,43.70
2022-12-29T07:34:40.728Z,43.60
2022-12-29T07:37:49.008Z,43.70
2022-12-29T07:41:00.017Z,44.00
2022-12-29T07:44:08.232Z,43.40
2022-12-29T07:47:35.154Z,44.00
2022-12-29T07:50:44.651Z,43.90
2022-12-29T07:53:53.020Z,44.00
2022-12-29T07:57:01.418Z,44.20
2022-12-29T08:00:10.797Z,43.90
2022-12-29T08:03:21.230Z,44.20
2022-12-29T08:06:31.662Z,44.20
2022-12-29T08:09:39.958Z,44.30
2022-12-29T08:12:48.018Z,44.00
2022-12-29T08:15:56.192Z,43.70
2022-12-29T08:19:04.724Z,44.30
2022-12-29T08:22:15.380Z,44.50
2022-12-29T08:25:23.471Z,44.10
2022-12-29T08:28:32.304Z,44.50
2022-12-29T08:31:40.478Z,44.20
2022-12-29T08:34:48.651Z,43.60
2022-12-29T08:37:57.936Z,43.70
2022-12-29T08:41:06.150Z,43.80
2022-12-29T08:44:14.424Z,43.70
2022-12-29T08:47:22.424Z,44.30
2022-12-29T08:50:30.379Z,44.00
2022-12-29T08:53:39.992Z,43.70
2022-12-29T08:56:48.022Z,44.30
2022-12-29T08:59:57.714Z,44.70
2022-12-29T09:03:05.849Z,44.20
2022-12-29T09:06:14.140Z,43.80
2022-12-29T09:09:23.686Z,43.60
2022-12-29T09:12:36.398Z,45.00
2022-12-29T09:15:45.127Z,43.50
2022-12-29T09:18:53.390Z,44.00
2022-12-29T09:22:01.490Z,43.60
2022-12-29T09:25:11.321Z,43.90
2022-12-29T09:28:19.508Z,44.10
2022-12-29T09:31:27.616Z,43.70
2022-12-29T09:34:35.661Z,44.60
2022-12-29T09:37:43.688Z,43.60
2022-12-29T09:40:54.079Z,43.70
2022-12-29T09:44:07.422Z,43.90
2022-12-29T09:47:16.560Z,43.90
2022-12-29T09:50:26.595Z,43.80
2022-12-29T09:53:38.637Z,44.10
2022-12-29T09:56:47.979Z,43.70
2022-12-29T09:59:58.144Z,43.90
2022-12-29T10:03:08.346Z,44.10
2022-12-29T10:06:17.786Z,44.40
2022-12-29T10:09:28.322Z,44.10
2022-12-29T10:12:44.236Z,44.30
2022-12-29T10:16:00.051Z,43.90
2022-12-29T10:19:16.269Z,43.90
2022-12-29T10:22:33.701Z,44.10
2022-12-29T10:25:42.574Z,44.40
2022-12-29T10:28:53.524Z,45.10
2022-12-29T10:32:02.474Z,44.60
2022-12-29T10:35:13.819Z,44.50
2022-12-29T10:38:26.928Z,44.20
2022-12-29T10:41:36.829Z,44.80
2022-12-29T10:44:45.968Z,44.20
2022-12-29T10:47:56.629Z,44.70
2022-12-29T10:51:06.228Z,44.00
2022-12-29T10:54:17.044Z,44.00
2022-12-29T10:57:28.332Z,44.10
2022-12-29T11:00:38.095Z,44.00
2022-12-29T11:04:00.065Z,43.80
2022-12-29T11:07:11.966Z,44.10
2022-12-29T11:10:36.476Z,44.70
2022-12-29T11:13:50.090Z,44.20
2022-12-29T11:17:03.795Z,44.20
2022-12-29T11:20:28.844Z,44.50
2022-12-29T11:23:37.809Z,43.90
2022-12-29T11:26:46.459Z,44.20
2022-12-29T11:29:54.712Z,44.10
2022-12-29T11:33:05.040Z,44.40
2022-12-29T11:36:14.322Z,44.60
2022-12-29T11:39:28.530Z,44.80
2022-12-29T11:42:38.271Z,45.10
2022-12-29T11:45:47.823Z,45.30
2022-12-29T11:48:59.604Z,45.30
2022-12-29T11:52:07.589Z,45.00
2022-12-29T11:55:20.126Z,45.00
2022-12-29T11:58:33.260Z,44.90
2022-12-29T12:01:42.118Z,44.90
2022-12-29T12:04:56.219Z,44.80
2022-12-29T12:08:07.953Z,44.60
2022-12-29T12:11:17.631Z,44.80
2022-12-29T12:14:27.871Z,44.80
2022-12-29T12:18:04.701Z,44.30
2022-12-29T12:21:25.497Z,44.80
2022-12-29T12:24:39.724Z,44.50
2022-12-29T12:27:50.963Z,44.10
2022-12-29T12:30:59.589Z,44.20
2022-12-29T12:34:09.094Z,44.30
2022-12-29T12:37:37.478Z,44.00
2022-12-29T12:40:53.864Z,44.10
2022-12-29T12:44:03.658Z,44.70
2022-12-29T12:47:36.643Z,45.10
2022-12-29T12:50:50.009Z,45.70
2022-12-29T12:54:07.117Z,47.10
2022-12-29T12:57:17.276Z,48.30
2022-12-29T13:00:25.284Z,48.50
2022-12-29T13:03:39.107Z,48.60
2022-12-29T13:06:50.326Z,48.00
2022-12-29T13:10:23.810Z,47.30
2022-12-29T13:13:38.188Z,47.20
2022-12-29T13:16:48.735Z,47.10
2022-12-29T13:19:59.307Z,47.00
2022-12-29T13:23:11.848Z,46.40
2022-12-29T13:26:23.052Z,46.80
2022-12-29T13:29:34.615Z,46.20
2022-12-29T13:32:50.416Z,46.30
2022-12-29T13:36:02.218Z,46.40
2022-12-29T13:39:16.177Z,46.10
2022-12-29T13:42:30.308Z,45.90
2022-12-29T13:45:38.843Z,46.20
2022-12-29T13:48:48.661Z,46.10
2022-12-29T13:51:58.067Z,46.10
2022-12-29T13:55:19.516Z,46.00
2022-12-29T13:58:31.830Z,45.50
2022-12-29T14:01:42.047Z,46.30
2022-12-29T14:05:01.419Z,46.10
2022-12-29T14:08:16.211Z,45.70
2022-12-29T14:11:26.924Z,45.50
2022-12-29T14:14:37.218Z,45.30
2022-12-29T14:17:45.182Z,44.80
2022-12-29T14:20:55.858Z,45.20
2022-12-29T14:24:28.889Z,45.30
2022-12-29T14:27:53.727Z,45.80
2022-12-29T14:31:03.284Z,45.70
2022-12-29T14:34:42.034Z,44.60
2022-12-29T14:37:50.192Z,45.70
2022-12-29T14:41:31.592Z,44.90
2022-12-29T14:44:48.434Z,45.10
2022-12-29T14:47:57.736Z,45.50
2022-12-29T14:51:19.959Z,45.00
2022-12-29T14:55:02.493Z,45.10
2022-12-29T14:58:16.205Z,45.00
2022-12-29T15:01:40.546Z,45.40
2022-12-29T15:04:50.037Z,45.50
2022-12-29T15:07:58.286Z,45.00
2022-12-29T15:11:08.398Z,44.70
2022-12-29T15:14:35.268Z,44.80
2022-12-29T15:17:43.264Z,45.40
2022-12-29T15:20:54.088Z,44.80
2022-12-29T15:24:02.271Z,45.50
2022-12-29T15:27:13.438Z,45.00
2022-12-29T15:30:21.502Z,44.80
2022-12-29T15:33:29.769Z,44.80
2022-12-29T15:36:40.878Z,44.80
2022-12-29T15:39:49.306Z,45.10
2022-12-29T15:43:29.543Z,44.70
2022-12-29T15:46:37.794Z,44.60
2022-12-29T15:49:46.227Z,44.70
2022-12-29T15:52:55.742Z,44.90
2022-12-29T15:56:07.719Z,45.10
2022-12-29T15:59:28.032Z,45.00
2022-12-29T16:02:36.375Z,44.80
2022-12-29T16:05:44.890Z,44.30
2022-12-29T16:08:59.312Z,44.80
2022-12-29T16:12:08.944Z,45.50
2022-12-29T16:15:16.989Z,44.60
2022-12-29T16:18:27.081Z,44.40
2022-12-29T16:21:36.094Z,44.60
2022-12-29T16:24:45.399Z,44.20
2022-12-29T16:27:53.460Z,44.60
2022-12-29T16:31:03.979Z,44.50
2022-12-29T16:34:22.836Z,44.30
2022-12-29T16:37:31.849Z,44.30
2022-12-29T16:40:51.047Z,44.10
2022-12-29T16:44:13.879Z,44.10
2022-12-29T16:47:22.427Z,44.20
2022-12-29T16:50:30.867Z,44.20
2022-12-29T16:53:40.047Z,44.00
2022-12-29T16:56:49.698Z,44.00
2022-12-29T16:59:59.396Z,44.30
2022-12-29T17:03:07.420Z,44.00
2022-12-29T17:06:16.986Z,44.00
2022-12-29T17:09:26.237Z,44.10
2022-12-29T17:12:36.403Z,44.50
2022-12-29T17:15:44.532Z,45.90
2022-12-29T17:18:52.420Z,45.10
2022-12-29T17:22:00.797Z,45.10
2022-12-29T17:25:12.899Z,45.10
2022-12-29T17:28:23.160Z,44.90
2022-12-29T17:31:31.207Z,44.80
2022-12-29T17:34:39.079Z,45.10
2022-12-29T17:37:47.264Z,45.60
2022-12-29T17:40:55.511Z,45.30
2022-12-29T17:44:04.825Z,45.10
2022-12-29T17:47:13.210Z,44.70
2022-12-29T17:50:22.036Z,45.20
2022-12-29T17:53:30.946Z,45.00
2022-12-29T17:56:39.004Z,44.80
2022-12-29T17:59:48.318Z,45.00
2022-12-29T18:02:56.699Z,45.30
2022-12-29T18:06:06.506Z,45.10
2022-12-29T18:09:14.922Z,45.70
2022-12-29T18:12:31.317Z,45.00
2022-12-29T18:15:40.890Z,46.00
2022-12-29T18:18:49.040Z,45.50
2022-12-29T18:21:57.132Z,45.00
2022-12-29T18:25:15.158Z,45.20
2022-12-29T18:28:23.590Z,45.10
2022-12-29T18:31:33.729Z,44.90
2022-12-29T18:34:42.096Z,44.90
2022-12-29T18:37:50.309Z,45.20
2022-12-29T18:40:58.671Z,45.70
2022-12-29T18:44:06.841Z,45.00
2022-12-29T18:47:16.314Z,45.60
2022-12-29T18:50:24.211Z,44.80
2022-12-29T18:53:32.793Z,45.70
2022-12-29T18:56:41.044Z,45.30
2022-12-29T18:59:49.226Z,46.10
2022-12-29T19:02:58.481Z,45.20
2022-12-29T19:06:07.165Z,44.80
2022-12-29T19:09:15.380Z,45.10
2022-12-29T19:12:28.204Z,44.90
2022-12-29T19:15:37.954Z,45.30
2022-12-29T19:18:58.163Z,45.00
2022-12-29T19:22:06.596Z,45.00
2022-12-29T19:25:14.902Z,44.80
2022-12-29T19:28:24.549Z,44.50
2022-12-29T19:31:32.625Z,44.50
2022-12-29T19:34:42.104Z,44.60
2022-12-29T19:37:50.391Z,44.90
2022-12-29T19:40:58.469Z,44.80
2022-12-29T19:44:08.337Z,44.80
2022-12-29T19:47:20.695Z,45.20
2022-12-29T19:50:30.312Z,44.20
2022-12-29T19:53:38.221Z,44.80
2022-12-29T19:56:46.335Z,44.10
2022-12-29T19:59:54.378Z,44.80
2022-12-29T20:03:02.517Z,44.10
2022-12-29T20:06:12.129Z,44.00
2022-12-29T20:09:20.083Z,44.10
2022-12-29T20:12:29.432Z,44.10
2022-12-29T20:15:38.080Z,43.80
2022-12-29T20:18:46.372Z,43.90
2022-12-29T20:21:55.814Z,44.00
2022-12-29T20:25:43.190Z,43.70
2022-12-29T20:28:32.024Z,43.60
2022-12-29T20:31:40.151Z,43.80
2022-12-29T20:34:48.504Z,44.00
2022-12-29T20:37:57.992Z,44.50
2022-12-29T20:41:06.259Z,43.70
2022-12-29T20:44:14.588Z,43.80
2022-12-29T20:47:22.834Z,43.60
2022-12-29T20:50:31.013Z,43.70
2022-12-29T20:53:40.752Z,43.80
2022-12-29T20:56:48.934Z,44.30
2022-12-29T20:59:57.082Z,43.80
2022-12-29T21:03:05.409Z,43.90
2022-12-29T21:06:13.973Z,43.90
2022-12-29T21:09:23.471Z,44.10
2022-12-29T21:12:31.316Z,43.80
2022-12-29T21:15:39.239Z,43.70
2022-12-29T21:18:47.337Z,43.60
2022-12-29T21:21:55.447Z,44.00
2022-12-29T21:25:05.272Z,44.00
2022-12-29T21:28:13.335Z,43.80
2022-12-29T21:31:26.360Z,43.60
2022-12-29T21:34:34.592Z,44.00
2022-12-29T21:37:42.595Z,44.00
2022-12-29T21:40:52.140Z,44.00
2022-12-29T21:44:17.457Z,43.80
2022-12-29T21:47:25.483Z,43.70
2022-12-29T21:50:33.663Z,44.20
2022-12-29T21:53:42.427Z,44.30
2022-12-29T21:56:52.543Z,44.30
2022-12-29T22:00:18.000Z,43.80
2022-12-29T22:03:43.625Z,44.30
2022-12-29T22:07:09.785Z,43.90
2022-12-29T22:10:35.371Z,43.80
2022-12-29T22:13:44.906Z,44.10
2022-12-29T22:16:53.051Z,43.60
2022-12-29T22:20:01.281Z,43.70
2022-12-29T22:23:09.945Z,43.50
2022-12-29T22:26:18.019Z,43.40
2022-12-29T22:29:27.593Z,43.30
2022-12-29T22:32:35.908Z,43.10
2022-12-29T22:35:44.039Z,43.00
2022-12-29T22:38:52.447Z,43.10
2022-12-29T22:42:00.460Z,43.00
2022-12-29T22:45:10.579Z,43.00
2022-12-29T22:48:18.933Z,43.00
2022-12-29T22:51:27.338Z,43.00
2022-12-29T22:54:35.622Z,42.90
2022-12-29T22:57:43.807Z,43.00
2022-12-29T23:00:53.293Z,42.90
2022-12-29T23:04:45.531Z,42.90
2022-12-29T23:07:29.569Z,43.00
2022-12-29T23:10:37.692Z,43.10
2022-12-29T23:13:46.214Z,42.90
2022-12-29T23:16:55.884Z,42.90
2022-12-29T23:20:03.983Z,43.00
2022-12-29T23:23:12.210Z,43.00
2022-12-29T23:26:20.731Z,43.00
2022-12-29T23:29:28.716Z,43.00
2022-12-29T23:32:38.077Z,43.00
2022-12-29T23:35:46.025Z,43.00
2022-12-29T23:38:54.237Z,43.00
2022-12-29T23:42:02.127Z,43.00
2022-12-29T23:45:11.822Z,43.00
2022-12-29T23:48:21.418Z,43.10
2022-12-29T23:51:29.534Z,43.00
2022-12-29T23:54:37.883Z,43.00
2022-12-29T23:57:46.045Z,43.60
